Terminal Aerodrome Forecast
Issued by NWS Mt. Holly, NJ

Home | Current Version | Previous Version | Text Only | Print | Product List | Glossary On
Versions: 1 2 3 4 5 6 7 8 9 10 11 12 13 14 15 16 17 18 19 20 21 22 23
000
FTUS41 KPHI 101700
TAFABE
TAF
KABE 101732Z 1018/1118 05008KT P6SM SCT060 BKN100
     FM110000 VRB03KT P6SM SCT045 BKN100
     FM111200 05003KT P6SM SCT040=

USA.gov is the U.S. government's official web portal to all federal, state and local government web resources and services.